sensor_id;sensor_type;location;lat;lon;timestamp;P1;durP1;ratioP1;P2;durP2;ratioP2
20417;SDS011;10368;51.436;6.774;2023-07-29T00:00:45;2.83;;;2.63;;
20417;SDS011;10368;51.436;6.774;2023-07-29T00:03:13;3.30;;;2.92;;
20417;SDS011;10368;51.436;6.774;2023-07-29T00:05:40;6.82;;;3.47;;
20417;SDS011;10368;51.436;6.774;2023-07-29T00:08:07;3.80;;;2.92;;
20417;SDS011;10368;51.436;6.774;2023-07-29T00:10:37;4.45;;;3.03;;
20417;SDS011;10368;51.436;6.774;2023-07-29T00:13:05;3.38;;;2.90;;
20417;SDS011;10368;51.436;6.774;2023-07-29T00:15:33;3.53;;;3.00;;
20417;SDS011;10368;51.436;6.774;2023-07-29T00:18:00;3.22;;;2.80;;
20417;SDS011;10368;51.436;6.774;2023-07-29T00:20:28;6.50;;;3.90;;
20417;SDS011;10368;51.436;6.774;2023-07-29T00:22:55;3.75;;;3.42;;
20417;SDS011;10368;51.436;6.774;2023-07-29T00:25:24;3.55;;;3.17;;
20417;SDS011;10368;51.436;6.774;2023-07-29T00:27:51;4.72;;;3.30;;
20417;SDS011;10368;51.436;6.774;2023-07-29T00:30:18;6.15;;;4.78;;
20417;SDS011;10368;51.436;6.774;2023-07-29T00:32:45;6.30;;;3.65;;
20417;SDS011;10368;51.436;6.774;2023-07-29T00:35:13;4.45;;;4.00;;
20417;SDS011;10368;51.436;6.774;2023-07-29T00:37:40;3.47;;;3.17;;
20417;SDS011;10368;51.436;6.774;2023-07-29T00:40:09;4.45;;;3.35;;
20417;SDS011;10368;51.436;6.774;2023-07-29T00:42:39;3.88;;;3.58;;
20417;SDS011;10368;51.436;6.774;2023-07-29T00:45:09;3.20;;;2.92;;
20417;SDS011;10368;51.436;6.774;2023-07-29T00:47:36;3.72;;;3.42;;
20417;SDS011;10368;51.436;6.774;2023-07-29T00:50:05;5.15;;;4.05;;
20417;SDS011;10368;51.436;6.774;2023-07-29T00:52:32;9.40;;;3.95;;
20417;SDS011;10368;51.436;6.774;2023-07-29T00:55:00;3.30;;;3.10;;
20417;SDS011;10368;51.436;6.774;2023-07-29T00:57:27;3.83;;;3.42;;
20417;SDS011;10368;51.436;6.774;2023-07-29T00:59:56;3.83;;;3.47;;
20417;SDS011;10368;51.436;6.774;2023-07-29T01:02:23;3.55;;;2.58;;
20417;SDS011;10368;51.436;6.774;2023-07-29T01:04:51;4.97;;;2.90;;
20417;SDS011;10368;51.436;6.774;2023-07-29T01:07:21;9.98;;;3.70;;
20417;SDS011;10368;51.436;6.774;2023-07-29T01:09:52;4.88;;;3.47;;
20417;SDS011;10368;51.436;6.774;2023-07-29T01:12:27;3.95;;;3.65;;
20417;SDS011;10368;51.436;6.774;2023-07-29T01:17:30;3.10;;;2.90;;
20417;SDS011;10368;51.436;6.774;2023-07-29T01:20:09;9.88;;;3.53;;
20417;SDS011;10368;51.436;6.774;2023-07-29T01:22:37;3.58;;;3.17;;
20417;SDS011;10368;51.436;6.774;2023-07-29T01:25:06;4.18;;;3.33;;
20417;SDS011;10368;51.436;6.774;2023-07-29T01:27:33;4.63;;;3.25;;
20417;SDS011;10368;51.436;6.774;2023-07-29T01:30:00;4.65;;;3.78;;
20417;SDS011;10368;51.436;6.774;2023-07-29T01:35:08;4.22;;;3.83;;
20417;SDS011;10368;51.436;6.774;2023-07-29T01:37:37;4.15;;;3.25;;
20417;SDS011;10368;51.436;6.774;2023-07-29T01:40:06;4.65;;;3.35;;
20417;SDS011;10368;51.436;6.774;2023-07-29T01:42:34;4.93;;;3.22;;
20417;SDS011;10368;51.436;6.774;2023-07-29T01:45:01;7.18;;;3.63;;
20417;SDS011;10368;51.436;6.774;2023-07-29T01:47:28;3.60;;;3.30;;
20417;SDS011;10368;51.436;6.774;2023-07-29T01:49:56;4.72;;;3.30;;
20417;SDS011;10368;51.436;6.774;2023-07-29T01:52:23;8.70;;;4.07;;
20417;SDS011;10368;51.436;6.774;2023-07-29T01:54:50;4.00;;;3.58;;
20417;SDS011;10368;51.436;6.774;2023-07-29T01:57:17;4.18;;;3.45;;
20417;SDS011;10368;51.436;6.774;2023-07-29T01:59:44;4.03;;;2.90;;
20417;SDS011;10368;51.436;6.774;2023-07-29T02:02:12;4.13;;;3.75;;
20417;SDS011;10368;51.436;6.774;2023-07-29T02:04:39;3.72;;;3.42;;
20417;SDS011;10368;51.436;6.774;2023-07-29T02:07:06;4.45;;;4.05;;
20417;SDS011;10368;51.436;6.774;2023-07-29T02:09:33;4.15;;;3.83;;
20417;SDS011;10368;51.436;6.774;2023-07-29T02:12:00;6.07;;;3.45;;
20417;SDS011;10368;51.436;6.774;2023-07-29T02:14:28;6.35;;;4.03;;
20417;SDS011;10368;51.436;6.774;2023-07-29T02:16:56;4.72;;;4.32;;
20417;SDS011;10368;51.436;6.774;2023-07-29T02:19:23;7.13;;;4.70;;
20417;SDS011;10368;51.436;6.774;2023-07-29T02:21:50;5.88;;;4.22;;
20417;SDS011;10368;51.436;6.774;2023-07-29T02:24:17;4.25;;;3.95;;
20417;SDS011;10368;51.436;6.774;2023-07-29T02:26:44;7.30;;;5.25;;
20417;SDS011;10368;51.436;6.774;2023-07-29T02:29:12;6.43;;;4.80;;
20417;SDS011;10368;51.436;6.774;2023-07-29T02:31:39;9.52;;;4.95;;
20417;SDS011;10368;51.436;6.774;2023-07-29T02:34:06;5.43;;;4.93;;
20417;SDS011;10368;51.436;6.774;2023-07-29T02:36:33;5.30;;;4.88;;
20417;SDS011;10368;51.436;6.774;2023-07-29T02:39:01;5.00;;;4.32;;
20417;SDS011;10368;51.436;6.774;2023-07-29T02:41:28;4.72;;;4.32;;
20417;SDS011;10368;51.436;6.774;2023-07-29T02:43:55;4.85;;;4.45;;
20417;SDS011;10368;51.436;6.774;2023-07-29T02:46:23;5.38;;;4.90;;
20417;SDS011;10368;51.436;6.774;2023-07-29T02:48:50;5.20;;;4.80;;
20417;SDS011;10368;51.436;6.774;2023-07-29T02:51:17;10.63;;;5.13;;
20417;SDS011;10368;51.436;6.774;2023-07-29T02:53:44;5.20;;;4.80;;
20417;SDS011;10368;51.436;6.774;2023-07-29T02:56:11;5.63;;;4.80;;
20417;SDS011;10368;51.436;6.774;2023-07-29T02:58:39;5.28;;;4.50;;
20417;SDS011;10368;51.436;6.774;2023-07-29T03:01:06;7.40;;;5.57;;
20417;SDS011;10368;51.436;6.774;2023-07-29T03:03:33;4.93;;;4.53;;
20417;SDS011;10368;51.436;6.774;2023-07-29T03:06:08;6.18;;;5.20;;
20417;SDS011;10368;51.436;6.774;2023-07-29T03:08:36;6.10;;;5.50;;
20417;SDS011;10368;51.436;6.774;2023-07-29T03:11:06;6.10;;;5.53;;
20417;SDS011;10368;51.436;6.774;2023-07-29T03:13:34;5.45;;;4.95;;
20417;SDS011;10368;51.436;6.774;2023-07-29T03:16:05;5.18;;;4.70;;
20417;SDS011;10368;51.436;6.774;2023-07-29T03:18:33;5.65;;;5.15;;
20417;SDS011;10368;51.436;6.774;2023-07-29T03:21:00;8.13;;;4.75;;
20417;SDS011;10368;51.436;6.774;2023-07-29T03:23:28;6.07;;;4.93;;
20417;SDS011;10368;51.436;6.774;2023-07-29T03:25:56;9.65;;;4.70;;
20417;SDS011;10368;51.436;6.774;2023-07-29T03:28:27;5.07;;;4.57;;
20417;SDS011;10368;51.436;6.774;2023-07-29T03:30:55;3.78;;;3.47;;
20417;SDS011;10368;51.436;6.774;2023-07-29T03:33:22;3.72;;;3.42;;
20417;SDS011;10368;51.436;6.774;2023-07-29T03:35:50;5.57;;;4.10;;
20417;SDS011;10368;51.436;6.774;2023-07-29T03:38:17;7.35;;;4.50;;
20417;SDS011;10368;51.436;6.774;2023-07-29T03:40:44;4.88;;;4.45;;
20417;SDS011;10368;51.436;6.774;2023-07-29T03:43:12;4.85;;;4.20;;
20417;SDS011;10368;51.436;6.774;2023-07-29T03:45:39;5.32;;;4.10;;
20417;SDS011;10368;51.436;6.774;2023-07-29T03:48:07;4.75;;;4.32;;
20417;SDS011;10368;51.436;6.774;2023-07-29T03:50:35;5.57;;;4.35;;
20417;SDS011;10368;51.436;6.774;2023-07-29T03:53:03;4.80;;;4.18;;
20417;SDS011;10368;51.436;6.774;2023-07-29T03:55:31;3.75;;;3.45;;
20417;SDS011;10368;51.436;6.774;2023-07-29T03:57:58;4.18;;;3.88;;
20417;SDS011;10368;51.436;6.774;2023-07-29T04:00:26;4.57;;;3.85;;
20417;SDS011;10368;51.436;6.774;2023-07-29T04:02:56;4.03;;;3.58;;
20417;SDS011;10368;51.436;6.774;2023-07-29T04:05:24;4.35;;;4.00;;
20417;SDS011;10368;51.436;6.774;2023-07-29T04:07:51;4.43;;;4.03;;
20417;SDS011;10368;51.436;6.774;2023-07-29T04:10:20;4.30;;;3.92;;
20417;SDS011;10368;51.436;6.774;2023-07-29T04:12:47;4.85;;;4.45;;
20417;SDS011;10368;51.436;6.774;2023-07-29T04:15:14;4.22;;;3.70;;
20417;SDS011;10368;51.436;6.774;2023-07-29T04:17:41;5.40;;;3.70;;
20417;SDS011;10368;51.436;6.774;2023-07-29T04:20:09;3.97;;;3.65;;
20417;SDS011;10368;51.436;6.774;2023-07-29T04:22:37;9.43;;;3.97;;
20417;SDS011;10368;51.436;6.774;2023-07-29T04:25:04;5.28;;;3.80;;
20417;SDS011;10368;51.436;6.774;2023-07-29T04:27:32;5.78;;;4.32;;
20417;SDS011;10368;51.436;6.774;2023-07-29T04:29:59;5.00;;;4.60;;
20417;SDS011;10368;51.436;6.774;2023-07-29T04:32:26;5.78;;;5.28;;
20417;SDS011;10368;51.436;6.774;2023-07-29T04:34:53;5.97;;;5.47;;
20417;SDS011;10368;51.436;6.774;2023-07-29T04:37:20;6.68;;;5.97;;
20417;SDS011;10368;51.436;6.774;2023-07-29T04:39:48;6.68;;;6.07;;
20417;SDS011;10368;51.436;6.774;2023-07-29T04:42:15;7.00;;;6.30;;
20417;SDS011;10368;51.436;6.774;2023-07-29T04:44:42;7.47;;;6.28;;
20417;SDS011;10368;51.436;6.774;2023-07-29T04:47:09;7.43;;;6.53;;
20417;SDS011;10368;51.436;6.774;2023-07-29T04:49:37;7.88;;;6.22;;
20417;SDS011;10368;51.436;6.774;2023-07-29T04:52:04;7.28;;;6.68;;
20417;SDS011;10368;51.436;6.774;2023-07-29T04:54:31;6.80;;;6.15;;
20417;SDS011;10368;51.436;6.774;2023-07-29T04:56:58;7.60;;;6.80;;
20417;SDS011;10368;51.436;6.774;2023-07-29T04:59:26;8.18;;;6.43;;
20417;SDS011;10368;51.436;6.774;2023-07-29T05:01:53;7.80;;;7.05;;
20417;SDS011;10368;51.436;6.774;2023-07-29T05:04:21;11.95;;;7.32;;
20417;SDS011;10368;51.436;6.774;2023-07-29T05:06:49;9.23;;;6.28;;
20417;SDS011;10368;51.436;6.774;2023-07-29T05:09:17;6.80;;;6.10;;
20417;SDS011;10368;51.436;6.774;2023-07-29T05:11:44;7.40;;;6.20;;
20417;SDS011;10368;51.436;6.774;2023-07-29T05:14:15;6.97;;;6.38;;
20417;SDS011;10368;51.436;6.774;2023-07-29T05:16:43;7.03;;;6.25;;
20417;SDS011;10368;51.436;6.774;2023-07-29T05:19:10;6.35;;;5.45;;
20417;SDS011;10368;51.436;6.774;2023-07-29T05:21:38;5.50;;;4.72;;
20417;SDS011;10368;51.436;6.774;2023-07-29T05:24:06;6.15;;;4.90;;
20417;SDS011;10368;51.436;6.774;2023-07-29T05:26:34;4.75;;;4.32;;
20417;SDS011;10368;51.436;6.774;2023-07-29T05:29:01;4.55;;;4.15;;
20417;SDS011;10368;51.436;6.774;2023-07-29T05:31:30;5.00;;;4.50;;
20417;SDS011;10368;51.436;6.774;2023-07-29T05:33:57;5.20;;;4.70;;
20417;SDS011;10368;51.436;6.774;2023-07-29T05:36:24;5.40;;;4.90;;
20417;SDS011;10368;51.436;6.774;2023-07-29T05:38:52;6.90;;;4.57;;
20417;SDS011;10368;51.436;6.774;2023-07-29T05:41:19;5.30;;;4.22;;
20417;SDS011;10368;51.436;6.774;2023-07-29T05:43:46;4.60;;;4.20;;
20417;SDS011;10368;51.436;6.774;2023-07-29T05:46:14;3.90;;;3.50;;
20417;SDS011;10368;51.436;6.774;2023-07-29T05:48:41;4.15;;;2.90;;
20417;SDS011;10368;51.436;6.774;2023-07-29T05:51:08;4.57;;;3.08;;
20417;SDS011;10368;51.436;6.774;2023-07-29T05:53:35;4.40;;;2.90;;
20417;SDS011;10368;51.436;6.774;2023-07-29T05:56:03;2.88;;;2.67;;
20417;SDS011;10368;51.436;6.774;2023-07-29T05:58:30;3.40;;;3.10;;
20417;SDS011;10368;51.436;6.774;2023-07-29T06:00:58;2.80;;;2.50;;
20417;SDS011;10368;51.436;6.774;2023-07-29T06:03:25;5.68;;;2.58;;
20417;SDS011;10368;51.436;6.774;2023-07-29T06:05:53;6.85;;;2.85;;
20417;SDS011;10368;51.436;6.774;2023-07-29T06:08:21;3.80;;;2.92;;
20417;SDS011;10368;51.436;6.774;2023-07-29T06:10:48;2.78;;;2.42;;
20417;SDS011;10368;51.436;6.774;2023-07-29T06:13:15;3.42;;;2.58;;
20417;SDS011;10368;51.436;6.774;2023-07-29T06:15:43;4.22;;;2.60;;
20417;SDS011;10368;51.436;6.774;2023-07-29T06:18:10;3.00;;;2.70;;
20417;SDS011;10368;51.436;6.774;2023-07-29T06:20:37;3.28;;;2.97;;
20417;SDS011;10368;51.436;6.774;2023-07-29T06:23:05;4.40;;;2.83;;
20417;SDS011;10368;51.436;6.774;2023-07-29T06:25:32;5.65;;;2.45;;
20417;SDS011;10368;51.436;6.774;2023-07-29T06:27:59;7.10;;;2.60;;
20417;SDS011;10368;51.436;6.774;2023-07-29T06:30:26;4.20;;;2.42;;
20417;SDS011;10368;51.436;6.774;2023-07-29T06:32:54;3.63;;;2.17;;
20417;SDS011;10368;51.436;6.774;2023-07-29T06:35:21;2.28;;;2.08;;
20417;SDS011;10368;51.436;6.774;2023-07-29T06:37:49;3.20;;;2.53;;
20417;SDS011;10368;51.436;6.774;2023-07-29T06:40:17;2.40;;;2.10;;
20417;SDS011;10368;51.436;6.774;2023-07-29T06:42:44;2.53;;;2.33;;
20417;SDS011;10368;51.436;6.774;2023-07-29T06:45:11;2.40;;;2.05;;
20417;SDS011;10368;51.436;6.774;2023-07-29T06:47:38;2.55;;;2.30;;
20417;SDS011;10368;51.436;6.774;2023-07-29T06:50:06;2.10;;;1.90;;
20417;SDS011;10368;51.436;6.774;2023-07-29T06:52:33;2.60;;;1.88;;
20417;SDS011;10368;51.436;6.774;2023-07-29T06:55:01;2.20;;;1.50;;
20417;SDS011;10368;51.436;6.774;2023-07-29T06:57:28;2.35;;;1.73;;
20417;SDS011;10368;51.436;6.774;2023-07-29T06:59:55;3.45;;;1.98;;
20417;SDS011;10368;51.436;6.774;2023-07-29T07:02:22;2.40;;;1.70;;
20417;SDS011;10368;51.436;6.774;2023-07-29T07:04:50;7.35;;;1.95;;
20417;SDS011;10368;51.436;6.774;2023-07-29T07:07:17;2.22;;;1.88;;
20417;SDS011;10368;51.436;6.774;2023-07-29T07:09:44;4.75;;;1.48;;
20417;SDS011;10368;51.436;6.774;2023-07-29T07:12:11;2.10;;;1.42;;
20417;SDS011;10368;51.436;6.774;2023-07-29T07:14:39;2.40;;;2.20;;
20417;SDS011;10368;51.436;6.774;2023-07-29T07:17:06;2.03;;;1.40;;
20417;SDS011;10368;51.436;6.774;2023-07-29T07:19:36;3.53;;;1.60;;
20417;SDS011;10368;51.436;6.774;2023-07-29T07:22:03;1.17;;;1.08;;
20417;SDS011;10368;51.436;6.774;2023-07-29T07:24:31;1.60;;;1.50;;
20417;SDS011;10368;51.436;6.774;2023-07-29T07:26:58;1.60;;;1.17;;
20417;SDS011;10368;51.436;6.774;2023-07-29T07:29:25;1.77;;;1.63;;
20417;SDS011;10368;51.436;6.774;2023-07-29T07:31:53;2.22;;;1.30;;
20417;SDS011;10368;51.436;6.774;2023-07-29T07:34:20;1.60;;;1.50;;
20417;SDS011;10368;51.436;6.774;2023-07-29T07:36:48;1.55;;;1.40;;
20417;SDS011;10368;51.436;6.774;2023-07-29T07:39:15;1.60;;;1.50;;
20417;SDS011;10368;51.436;6.774;2023-07-29T07:41:42;2.55;;;1.45;;
20417;SDS011;10368;51.436;6.774;2023-07-29T07:44:10;1.50;;;1.17;;
20417;SDS011;10368;51.436;6.774;2023-07-29T07:46:41;1.80;;;1.65;;
20417;SDS011;10368;51.436;6.774;2023-07-29T07:49:08;1.30;;;1.20;;
20417;SDS011;10368;51.436;6.774;2023-07-29T07:51:35;2.53;;;1.27;;
20417;SDS011;10368;51.436;6.774;2023-07-29T07:54:03;1.30;;;1.20;;
20417;SDS011;10368;51.436;6.774;2023-07-29T07:56:30;1.20;;;1.10;;
20417;SDS011;10368;51.436;6.774;2023-07-29T07:58:57;6.03;;;1.05;;
20417;SDS011;10368;51.436;6.774;2023-07-29T08:01:24;1.50;;;1.05;;
20417;SDS011;10368;51.436;6.774;2023-07-29T08:03:52;1.10;;;1.00;;
20417;SDS011;10368;51.436;6.774;2023-07-29T08:06:19;0.98;;;0.88;;
20417;SDS011;10368;51.436;6.774;2023-07-29T08:08:46;1.75;;;0.82;;
20417;SDS011;10368;51.436;6.774;2023-07-29T08:11:13;1.73;;;1.00;;
20417;SDS011;10368;51.436;6.774;2023-07-29T08:13:41;1.15;;;1.02;;
20417;SDS011;10368;51.436;6.774;2023-07-29T08:16:08;0.90;;;0.80;;
20417;SDS011;10368;51.436;6.774;2023-07-29T08:18:35;1.27;;;1.10;;
20417;SDS011;10368;51.436;6.774;2023-07-29T08:21:02;1.10;;;1.00;;
20417;SDS011;10368;51.436;6.774;2023-07-29T08:23:30;1.40;;;1.30;;
20417;SDS011;10368;51.436;6.774;2023-07-29T08:25:58;1.25;;;1.10;;
20417;SDS011;10368;51.436;6.774;2023-07-29T08:30:57;1.00;;;1.00;;
20417;SDS011;10368;51.436;6.774;2023-07-29T08:33:24;0.95;;;0.95;;
20417;SDS011;10368;51.436;6.774;2023-07-29T08:35:52;1.20;;;1.10;;
20417;SDS011;10368;51.436;6.774;2023-07-29T08:38:19;2.05;;;1.17;;
20417;SDS011;10368;51.436;6.774;2023-07-29T08:40:52;1.50;;;1.23;;
20417;SDS011;10368;51.436;6.774;2023-07-29T08:43:20;2.47;;;1.05;;
20417;SDS011;10368;51.436;6.774;2023-07-29T08:45:53;1.40;;;1.05;;
20417;SDS011;10368;51.436;6.774;2023-07-29T08:48:22;1.02;;;1.00;;
20417;SDS011;10368;51.436;6.774;2023-07-29T08:50:51;2.25;;;0.95;;
20417;SDS011;10368;51.436;6.774;2023-07-29T08:53:19;1.13;;;1.00;;
20417;SDS011;10368;51.436;6.774;2023-07-29T08:55:46;1.00;;;0.70;;
20417;SDS011;10368;51.436;6.774;2023-07-29T08:58:14;0.93;;;0.80;;
20417;SDS011;10368;51.436;6.774;2023-07-29T09:00:42;1.92;;;0.80;;
20417;SDS011;10368;51.436;6.774;2023-07-29T09:03:09;1.83;;;1.73;;
20417;SDS011;10368;51.436;6.774;2023-07-29T09:05:37;1.10;;;0.82;;
20417;SDS011;10368;51.436;6.774;2023-07-29T09:08:04;1.20;;;1.10;;
20417;SDS011;10368;51.436;6.774;2023-07-29T09:10:34;1.20;;;1.08;;
20417;SDS011;10368;51.436;6.774;2023-07-29T09:13:02;1.33;;;0.93;;
20417;SDS011;10368;51.436;6.774;2023-07-29T09:15:30;1.00;;;0.90;;
20417;SDS011;10368;51.436;6.774;2023-07-29T09:17:58;1.38;;;0.98;;
20417;SDS011;10368;51.436;6.774;2023-07-29T09:20:28;1.02;;;0.90;;
20417;SDS011;10368;51.436;6.774;2023-07-29T09:22:57;3.53;;;0.98;;
20417;SDS011;10368;51.436;6.774;2023-07-29T09:25:26;1.88;;;0.80;;
20417;SDS011;10368;51.436;6.774;2023-07-29T09:28:00;3.03;;;0.93;;
20417;SDS011;10368;51.436;6.774;2023-07-29T09:30:28;0.85;;;0.85;;
20417;SDS011;10368;51.436;6.774;2023-07-29T09:32:56;1.30;;;1.20;;
20417;SDS011;10368;51.436;6.774;2023-07-29T09:35:23;1.65;;;1.42;;
20417;SDS011;10368;51.436;6.774;2023-07-29T09:37:51;1.60;;;1.50;;
20417;SDS011;10368;51.436;6.774;2023-07-29T09:40:18;1.40;;;1.30;;
20417;SDS011;10368;51.436;6.774;2023-07-29T09:42:49;1.85;;;1.50;;
20417;SDS011;10368;51.436;6.774;2023-07-29T09:45:20;2.80;;;1.20;;
20417;SDS011;10368;51.436;6.774;2023-07-29T09:47:48;2.17;;;1.42;;
20417;SDS011;10368;51.436;6.774;2023-07-29T09:50:16;1.30;;;1.20;;
20417;SDS011;10368;51.436;6.774;2023-07-29T09:52:43;1.25;;;1.15;;
20417;SDS011;10368;51.436;6.774;2023-07-29T09:55:12;1.52;;;1.33;;
20417;SDS011;10368;51.436;6.774;2023-07-29T09:57:40;1.30;;;1.20;;
20417;SDS011;10368;51.436;6.774;2023-07-29T10:00:09;1.30;;;1.20;;
20417;SDS011;10368;51.436;6.774;2023-07-29T10:02:38;1.10;;;1.10;;
20417;SDS011;10368;51.436;6.774;2023-07-29T10:05:07;1.45;;;1.35;;
20417;SDS011;10368;51.436;6.774;2023-07-29T10:07:37;3.63;;;1.23;;
20417;SDS011;10368;51.436;6.774;2023-07-29T10:10:06;1.30;;;1.10;;
20417;SDS011;10368;51.436;6.774;2023-07-29T10:12:34;2.00;;;1.70;;
20417;SDS011;10368;51.436;6.774;2023-07-29T10:15:03;3.88;;;3.67;;
20417;SDS011;10368;51.436;6.774;2023-07-29T10:17:31;1.75;;;1.65;;
20417;SDS011;10368;51.436;6.774;2023-07-29T10:20:00;1.30;;;1.20;;
20417;SDS011;10368;51.436;6.774;2023-07-29T10:22:28;5.00;;;1.48;;
20417;SDS011;10368;51.436;6.774;2023-07-29T10:24:56;1.92;;;1.50;;
20417;SDS011;10368;51.436;6.774;2023-07-29T10:27:26;1.95;;;1.58;;
20417;SDS011;10368;51.436;6.774;2023-07-29T10:29:54;1.67;;;1.33;;
20417;SDS011;10368;51.436;6.774;2023-07-29T10:32:24;1.50;;;1.40;;
20417;SDS011;10368;51.436;6.774;2023-07-29T10:34:52;1.35;;;1.13;;
20417;SDS011;10368;51.436;6.774;2023-07-29T10:37:20;1.80;;;1.23;;
20417;SDS011;10368;51.436;6.774;2023-07-29T10:39:52;1.45;;;1.35;;
20417;SDS011;10368;51.436;6.774;2023-07-29T10:42:20;1.77;;;1.33;;
20417;SDS011;10368;51.436;6.774;2023-07-29T10:44:50;1.40;;;1.30;;
20417;SDS011;10368;51.436;6.774;2023-07-29T10:49:52;1.30;;;1.20;;
20417;SDS011;10368;51.436;6.774;2023-07-29T10:52:30;4.18;;;1.65;;
20417;SDS011;10368;51.436;6.774;2023-07-29T10:54:58;1.45;;;1.35;;
20417;SDS011;10368;51.436;6.774;2023-07-29T10:57:32;1.52;;;1.30;;
20417;SDS011;10368;51.436;6.774;2023-07-29T11:00:00;1.80;;;1.70;;
20417;SDS011;10368;51.436;6.774;2023-07-29T11:02:31;1.70;;;1.60;;
20417;SDS011;10368;51.436;6.774;2023-07-29T11:05:00;2.67;;;1.50;;
20417;SDS011;10368;51.436;6.774;2023-07-29T11:07:31;2.13;;;1.30;;
20417;SDS011;10368;51.436;6.774;2023-07-29T11:10:11;1.42;;;1.17;;
20417;SDS011;10368;51.436;6.774;2023-07-29T11:17:37;1.98;;;1.42;;
20417;SDS011;10368;51.436;6.774;2023-07-29T11:20:06;1.52;;;1.42;;
20417;SDS011;10368;51.436;6.774;2023-07-29T11:22:36;4.35;;;2.50;;
20417;SDS011;10368;51.436;6.774;2023-07-29T11:25:04;2.10;;;1.50;;
20417;SDS011;10368;51.436;6.774;2023-07-29T11:27:31;1.70;;;1.60;;
20417;SDS011;10368;51.436;6.774;2023-07-29T11:29:59;1.88;;;1.33;;
20417;SDS011;10368;51.436;6.774;2023-07-29T11:32:26;1.83;;;1.23;;
20417;SDS011;10368;51.436;6.774;2023-07-29T11:34:54;1.85;;;1.55;;
20417;SDS011;10368;51.436;6.774;2023-07-29T11:37:21;1.65;;;1.27;;
20417;SDS011;10368;51.436;6.774;2023-07-29T11:39:48;1.95;;;1.20;;
20417;SDS011;10368;51.436;6.774;2023-07-29T11:42:17;1.50;;;1.38;;
20417;SDS011;10368;51.436;6.774;2023-07-29T11:44:44;1.33;;;1.08;;
20417;SDS011;10368;51.436;6.774;2023-07-29T11:47:12;2.25;;;1.70;;
20417;SDS011;10368;51.436;6.774;2023-07-29T11:49:40;1.80;;;1.60;;
20417;SDS011;10368;51.436;6.774;2023-07-29T11:52:08;1.83;;;1.20;;
20417;SDS011;10368;51.436;6.774;2023-07-29T11:54:36;1.40;;;1.30;;
20417;SDS011;10368;51.436;6.774;2023-07-29T11:57:06;2.05;;;1.33;;
20417;SDS011;10368;51.436;6.774;2023-07-29T11:59:35;1.60;;;1.42;;
20417;SDS011;10368;51.436;6.774;2023-07-29T12:02:08;4.13;;;1.80;;
20417;SDS011;10368;51.436;6.774;2023-07-29T12:04:37;2.20;;;1.40;;
20417;SDS011;10368;51.436;6.774;2023-07-29T12:07:05;2.15;;;1.58;;
20417;SDS011;10368;51.436;6.774;2023-07-29T12:09:33;3.28;;;1.55;;
20417;SDS011;10368;51.436;6.774;2023-07-29T12:12:01;1.83;;;1.35;;
20417;SDS011;10368;51.436;6.774;2023-07-29T12:14:28;1.10;;;1.00;;
20417;SDS011;10368;51.436;6.774;2023-07-29T12:16:56;1.60;;;1.40;;
20417;SDS011;10368;51.436;6.774;2023-07-29T12:19:30;4.15;;;1.63;;
20417;SDS011;10368;51.436;6.774;2023-07-29T12:21:58;2.72;;;2.15;;
20417;SDS011;10368;51.436;6.774;2023-07-29T12:24:25;2.10;;;1.30;;
20417;SDS011;10368;51.436;6.774;2023-07-29T12:26:53;1.70;;;1.60;;
20417;SDS011;10368;51.436;6.774;2023-07-29T12:29:20;1.83;;;1.50;;
20417;SDS011;10368;51.436;6.774;2023-07-29T12:31:48;3.30;;;2.30;;
20417;SDS011;10368;51.436;6.774;2023-07-29T12:34:19;5.38;;;2.10;;
20417;SDS011;10368;51.436;6.774;2023-07-29T12:36:47;2.97;;;2.05;;
20417;SDS011;10368;51.436;6.774;2023-07-29T12:41:45;4.43;;;2.05;;
20417;SDS011;10368;51.436;6.774;2023-07-29T12:44:12;3.50;;;2.58;;
20417;SDS011;10368;51.436;6.774;2023-07-29T12:46:42;1.73;;;1.63;;
20417;SDS011;10368;51.436;6.774;2023-07-29T12:49:09;1.95;;;1.58;;
20417;SDS011;10368;51.436;6.774;2023-07-29T12:51:36;2.40;;;1.80;;
20417;SDS011;10368;51.436;6.774;2023-07-29T12:54:04;2.63;;;1.73;;
20417;SDS011;10368;51.436;6.774;2023-07-29T12:56:32;2.03;;;1.80;;
20417;SDS011;10368;51.436;6.774;2023-07-29T12:59:00;3.20;;;2.60;;
20417;SDS011;10368;51.436;6.774;2023-07-29T13:01:27;2.67;;;2.42;;
20417;SDS011;10368;51.436;6.774;2023-07-29T13:03:55;2.10;;;1.90;;
20417;SDS011;10368;51.436;6.774;2023-07-29T13:06:22;1.63;;;1.52;;
20417;SDS011;10368;51.436;6.774;2023-07-29T13:08:50;1.77;;;1.67;;
20417;SDS011;10368;51.436;6.774;2023-07-29T13:11:17;2.60;;;2.40;;
20417;SDS011;10368;51.436;6.774;2023-07-29T13:13:44;3.65;;;2.47;;
20417;SDS011;10368;51.436;6.774;2023-07-29T13:16:12;4.45;;;3.60;;
20417;SDS011;10368;51.436;6.774;2023-07-29T13:18:39;5.82;;;4.00;;
20417;SDS011;10368;51.436;6.774;2023-07-29T13:21:07;3.15;;;2.80;;
20417;SDS011;10368;51.436;6.774;2023-07-29T13:23:34;3.70;;;2.47;;
20417;SDS011;10368;51.436;6.774;2023-07-29T13:26:01;5.13;;;3.63;;
20417;SDS011;10368;51.436;6.774;2023-07-29T13:28:29;2.95;;;2.40;;
20417;SDS011;10368;51.436;6.774;2023-07-29T13:30:56;2.33;;;2.10;;
20417;SDS011;10368;51.436;6.774;2023-07-29T13:33:24;2.72;;;1.50;;
20417;SDS011;10368;51.436;6.774;2023-07-29T13:35:51;3.25;;;1.90;;
20417;SDS011;10368;51.436;6.774;2023-07-29T13:38:19;2.05;;;1.88;;
20417;SDS011;10368;51.436;6.774;2023-07-29T13:40:46;3.15;;;2.85;;
20417;SDS011;10368;51.436;6.774;2023-07-29T13:43:14;5.38;;;3.63;;
20417;SDS011;10368;51.436;6.774;2023-07-29T13:45:41;5.20;;;3.72;;
20417;SDS011;10368;51.436;6.774;2023-07-29T13:48:08;4.13;;;3.72;;
20417;SDS011;10368;51.436;6.774;2023-07-29T13:50:36;4.18;;;2.78;;
20417;SDS011;10368;51.436;6.774;2023-07-29T13:53:03;7.35;;;3.22;;
20417;SDS011;10368;51.436;6.774;2023-07-29T13:55:30;3.10;;;2.85;;
20417;SDS011;10368;51.436;6.774;2023-07-29T13:57:57;2.20;;;2.00;;
20417;SDS011;10368;51.436;6.774;2023-07-29T14:00:25;5.47;;;3.17;;
20417;SDS011;10368;51.436;6.774;2023-07-29T14:02:52;2.83;;;2.63;;
20417;SDS011;10368;51.436;6.774;2023-07-29T14:05:19;2.97;;;2.67;;
20417;SDS011;10368;51.436;6.774;2023-07-29T14:07:47;5.05;;;2.85;;
20417;SDS011;10368;51.436;6.774;2023-07-29T14:10:14;2.83;;;2.53;;
20417;SDS011;10368;51.436;6.774;2023-07-29T14:12:41;3.53;;;2.42;;
20417;SDS011;10368;51.436;6.774;2023-07-29T14:15:08;3.40;;;3.00;;
20417;SDS011;10368;51.436;6.774;2023-07-29T14:17:36;2.97;;;2.45;;
20417;SDS011;10368;51.436;6.774;2023-07-29T14:20:03;3.50;;;2.20;;
20417;SDS011;10368;51.436;6.774;2023-07-29T14:22:32;5.78;;;2.88;;
20417;SDS011;10368;51.436;6.774;2023-07-29T14:24:59;1.90;;;1.80;;
20417;SDS011;10368;51.436;6.774;2023-07-29T14:27:27;2.90;;;2.10;;
20417;SDS011;10368;51.436;6.774;2023-07-29T14:29:54;2.63;;;1.63;;
20417;SDS011;10368;51.436;6.774;2023-07-29T14:32:21;1.48;;;1.38;;
20417;SDS011;10368;51.436;6.774;2023-07-29T14:34:49;2.22;;;1.42;;
20417;SDS011;10368;51.436;6.774;2023-07-29T14:37:16;2.17;;;1.70;;
20417;SDS011;10368;51.436;6.774;2023-07-29T14:39:43;2.60;;;1.70;;
20417;SDS011;10368;51.436;6.774;2023-07-29T14:42:11;2.60;;;1.92;;
20417;SDS011;10368;51.436;6.774;2023-07-29T14:44:39;4.03;;;2.05;;
20417;SDS011;10368;51.436;6.774;2023-07-29T14:47:07;3.85;;;2.78;;
20417;SDS011;10368;51.436;6.774;2023-07-29T14:49:34;8.65;;;3.60;;
20417;SDS011;10368;51.436;6.774;2023-07-29T14:52:01;10.52;;;4.95;;
20417;SDS011;10368;51.436;6.774;2023-07-29T14:54:28;5.65;;;4.47;;
20417;SDS011;10368;51.436;6.774;2023-07-29T14:56:55;5.43;;;3.88;;
20417;SDS011;10368;51.436;6.774;2023-07-29T14:59:22;4.80;;;3.47;;
20417;SDS011;10368;51.436;6.774;2023-07-29T15:01:48;6.40;;;3.88;;
20417;SDS011;10368;51.436;6.774;2023-07-29T15:04:15;4.80;;;3.88;;
20417;SDS011;10368;51.436;6.774;2023-07-29T15:06:42;6.07;;;4.20;;
20417;SDS011;10368;51.436;6.774;2023-07-29T15:09:09;6.95;;;3.97;;